createdAt,value
2022-10-18T00:01:36.817Z,38.50
2022-10-18T00:04:05.366Z,44.00
2022-10-18T00:06:33.834Z,40.05
2022-10-18T00:09:01.875Z,38.65
2022-10-18T00:11:30.891Z,34.63
2022-10-18T00:14:01.310Z,36.92
2022-10-18T00:16:29.622Z,45.67
2022-10-18T00:18:58.426Z,37.85
2022-10-18T00:21:27.650Z,35.17
2022-10-18T00:23:56.232Z,37.63
2022-10-18T00:26:28.928Z,39.05
2022-10-18T00:29:00.252Z,37.55
2022-10-18T00:31:32.001Z,41.72
2022-10-18T00:34:02.629Z,38.42
2022-10-18T00:36:34.447Z,39.10
2022-10-18T00:39:06.776Z,38.58
2022-10-18T00:41:38.999Z,35.58
2022-10-18T00:44:28.633Z,35.97
2022-10-18T00:47:02.024Z,37.60
2022-10-18T00:49:33.463Z,39.65
2022-10-18T00:52:06.089Z,38.33
2022-10-18T00:54:37.324Z,36.00
2022-10-18T00:57:08.643Z,38.30
2022-10-18T00:59:39.566Z,40.45
2022-10-18T01:02:09.732Z,35.92
2022-10-18T01:04:39.390Z,35.17
2022-10-18T01:07:17.292Z,37.60
2022-10-18T01:09:52.945Z,36.15
2022-10-18T01:12:27.214Z,38.03
2022-10-18T01:15:01.789Z,43.80
2022-10-18T01:17:40.002Z,41.63
2022-10-18T01:20:47.559Z,38.58
2022-10-18T01:23:21.573Z,40.22
2022-10-18T01:25:59.516Z,37.20
2022-10-18T01:28:44.945Z,37.13
2022-10-18T01:31:18.358Z,41.80
2022-10-18T01:33:52.124Z,35.13
2022-10-18T01:36:26.667Z,33.88
2022-10-18T01:38:58.534Z,39.30
2022-10-18T01:41:29.611Z,36.80
2022-10-18T01:44:01.166Z,37.47
2022-10-18T01:46:32.129Z,34.95
2022-10-18T01:49:00.958Z,36.35
2022-10-18T01:51:31.577Z,35.55
2022-10-18T01:54:00.241Z,32.47
2022-10-18T01:56:39.616Z,33.35
2022-10-18T01:59:21.300Z,35.50
2022-10-18T02:02:01.178Z,36.95
2022-10-18T02:04:35.586Z,31.58
2022-10-18T02:07:12.705Z,35.08
2022-10-18T02:09:50.576Z,34.97
2022-10-18T02:12:21.754Z,31.58
2022-10-18T02:14:52.067Z,36.38
2022-10-18T02:17:28.489Z,33.80
2022-10-18T02:19:58.086Z,35.70
2022-10-18T02:22:29.916Z,33.50
2022-10-18T02:27:27.978Z,32.88
2022-10-18T02:30:00.291Z,33.42
2022-10-18T02:32:41.403Z,33.15
2022-10-18T02:35:15.271Z,35.83
2022-10-18T02:37:44.584Z,35.10
2022-10-18T02:40:12.931Z,36.10
2022-10-18T02:42:47.238Z,33.95
2022-10-18T02:45:16.678Z,35.25
2022-10-18T02:47:49.295Z,33.70
2022-10-18T02:50:17.602Z,39.88
2022-10-18T02:52:48.588Z,33.17
2022-10-18T02:55:23.349Z,33.23
2022-10-18T02:57:51.959Z,36.88
2022-10-18T03:00:23.398Z,34.15
2022-10-18T03:02:57.799Z,35.10
2022-10-18T03:05:29.085Z,37.95
2022-10-18T03:07:58.590Z,37.65
2022-10-18T03:10:29.796Z,37.28
2022-10-18T03:12:58.751Z,37.80
2022-10-18T03:15:31.133Z,35.28
2022-10-18T03:18:01.150Z,33.60
2022-10-18T03:20:31.989Z,32.40
2022-10-18T03:23:01.716Z,34.35
2022-10-18T03:25:30.250Z,33.42
2022-10-18T03:27:59.040Z,37.22
2022-10-18T03:30:29.719Z,31.90
2022-10-18T03:33:04.895Z,31.20
2022-10-18T03:35:33.184Z,33.78
2022-10-18T03:38:04.013Z,47.60
2022-10-18T03:40:32.943Z,37.55
2022-10-18T03:43:01.615Z,50.88
2022-10-18T03:45:31.422Z,48.85
2022-10-18T03:48:03.215Z,40.63
2022-10-18T03:50:33.508Z,40.38
2022-10-18T03:53:04.725Z,49.75
2022-10-18T03:55:33.168Z,58.50
2022-10-18T03:58:02.019Z,60.88
2022-10-18T04:00:30.795Z,55.25
2022-10-18T04:02:59.444Z,56.67
2022-10-18T04:05:28.600Z,52.22
2022-10-18T04:07:59.859Z,59.30
2022-10-18T04:10:31.979Z,61.95
2022-10-18T04:13:02.413Z,57.40
2022-10-18T04:15:32.367Z,56.30
2022-10-18T04:18:00.950Z,52.90
2022-10-18T04:20:30.975Z,51.35
2022-10-18T04:23:00.839Z,60.42
2022-10-18T04:25:29.651Z,63.22
2022-10-18T04:27:58.269Z,61.13
2022-10-18T04:30:26.479Z,56.65
2022-10-18T04:32:54.533Z,63.53
2022-10-18T04:35:24.983Z,55.35
2022-10-18T04:37:53.315Z,51.97
2022-10-18T04:40:23.820Z,54.70
2022-10-18T04:42:53.519Z,52.10
2022-10-18T04:45:26.187Z,54.20
2022-10-18T04:48:01.196Z,55.00
2022-10-18T04:50:30.240Z,53.30
2022-10-18T04:52:58.587Z,48.50
2022-10-18T04:55:31.386Z,48.10
2022-10-18T04:58:03.590Z,52.55
2022-10-18T05:00:39.942Z,53.60
2022-10-18T05:03:09.217Z,53.00
2022-10-18T05:06:00.135Z,59.40
2022-10-18T05:08:26.811Z,66.10
2022-10-18T05:11:05.809Z,69.10
2022-10-18T05:13:34.561Z,74.65
2022-10-18T05:16:04.256Z,79.65
2022-10-18T05:18:32.618Z,84.13
2022-10-18T05:21:03.518Z,92.65
2022-10-18T05:23:31.798Z,93.28
2022-10-18T05:26:05.328Z,83.15
2022-10-18T05:28:40.405Z,74.68
2022-10-18T05:31:10.241Z,68.80
2022-10-18T05:33:41.881Z,62.65
2022-10-18T05:36:12.500Z,66.35
2022-10-18T05:38:43.522Z,63.28
2022-10-18T05:41:13.995Z,71.53
2022-10-18T05:43:47.820Z,62.67
2022-10-18T05:46:22.158Z,53.15
2022-10-18T05:48:54.315Z,53.13
2022-10-18T05:53:50.555Z,56.63
2022-10-18T05:56:22.751Z,53.70
2022-10-18T05:58:54.775Z,43.10
2022-10-18T06:01:25.719Z,43.42
2022-10-18T06:04:01.016Z,47.80
2022-10-18T06:06:33.730Z,48.47
2022-10-18T06:09:04.747Z,49.30
2022-10-18T06:11:39.029Z,61.38
2022-10-18T06:14:15.067Z,60.35
2022-10-18T06:16:43.689Z,51.33
2022-10-18T06:19:18.888Z,68.32
2022-10-18T06:21:49.156Z,56.58
2022-10-18T06:24:23.836Z,51.00
2022-10-18T06:26:54.961Z,55.67
2022-10-18T06:29:23.367Z,48.90
2022-10-18T06:31:53.468Z,51.10
2022-10-18T06:34:23.778Z,52.65
2022-10-18T06:36:56.393Z,60.92
2022-10-18T06:39:26.784Z,55.38
2022-10-18T06:42:00.512Z,62.75
2022-10-18T06:44:35.586Z,59.45
2022-10-18T06:47:07.107Z,52.92
2022-10-18T06:49:39.810Z,62.00
2022-10-18T06:52:11.647Z,50.58
2022-10-18T06:54:45.212Z,49.22
2022-10-18T06:57:16.563Z,57.40
2022-10-18T06:59:47.894Z,52.15
2022-10-18T07:02:20.973Z,54.47
2022-10-18T07:04:49.478Z,56.00
2022-10-18T07:07:18.178Z,52.25
2022-10-18T07:09:48.335Z,50.92
2022-10-18T07:12:20.681Z,53.75
2022-10-18T07:14:51.663Z,50.03
2022-10-18T07:17:20.771Z,54.93
2022-10-18T07:19:51.345Z,42.55
2022-10-18T07:22:25.004Z,45.15
2022-10-18T07:25:01.995Z,43.78
2022-10-18T07:27:37.566Z,40.92
2022-10-18T07:30:11.289Z,40.80
2022-10-18T07:32:42.196Z,42.45
2022-10-18T07:35:13.777Z,32.85
2022-10-18T07:37:43.584Z,33.53
2022-10-18T07:40:14.957Z,30.90
2022-10-18T07:42:44.355Z,30.23
2022-10-18T07:45:16.695Z,25.48
2022-10-18T07:47:45.551Z,25.75
2022-10-18T07:50:13.712Z,25.75
2022-10-18T07:52:43.475Z,28.25
2022-10-18T07:55:17.275Z,31.60
2022-10-18T07:57:51.583Z,23.48
2022-10-18T08:00:22.272Z,25.23
2022-10-18T08:02:59.324Z,23.00
2022-10-18T08:05:29.187Z,23.95
2022-10-18T08:07:57.883Z,26.25
2022-10-18T08:10:32.263Z,24.45
2022-10-18T08:13:05.527Z,25.08
2022-10-18T08:15:35.060Z,23.48
2022-10-18T08:18:11.624Z,20.48
2022-10-18T08:20:48.204Z,22.38
2022-10-18T08:23:21.938Z,27.95
2022-10-18T08:25:50.237Z,24.90
2022-10-18T08:28:21.287Z,17.92
2022-10-18T08:30:53.694Z,18.85
2022-10-18T08:33:27.493Z,21.75
2022-10-18T08:35:58.434Z,23.05
2022-10-18T08:38:32.267Z,19.65
2022-10-18T08:41:04.828Z,24.00
2022-10-18T08:43:42.152Z,30.95
2022-10-18T08:46:20.467Z,23.58
2022-10-18T08:48:53.459Z,18.83
2022-10-18T08:51:35.719Z,19.95
2022-10-18T08:54:08.527Z,18.95
2022-10-18T08:56:44.536Z,16.63
2022-10-18T08:59:19.136Z,19.83
2022-10-18T09:02:12.222Z,21.42
2022-10-18T09:04:51.517Z,19.40
2022-10-18T09:07:55.524Z,19.35
2022-10-18T09:10:42.499Z,18.08
2022-10-18T09:13:37.642Z,22.35
2022-10-18T09:16:12.125Z,20.15
2022-10-18T09:18:52.882Z,21.40
2022-10-18T09:21:29.551Z,15.73
2022-10-18T09:24:06.918Z,17.98
2022-10-18T09:26:46.202Z,16.45
2022-10-18T09:29:38.837Z,22.42
2022-10-18T09:32:25.726Z,15.23
2022-10-18T09:34:58.250Z,21.30
2022-10-18T09:37:30.276Z,20.13
2022-10-18T09:40:18.166Z,19.50
2022-10-18T09:42:55.531Z,15.23
2022-10-18T09:45:29.089Z,29.75
2022-10-18T09:48:15.425Z,21.88
2022-10-18T09:50:50.691Z,29.60
2022-10-18T09:53:26.754Z,15.48
2022-10-18T09:56:01.908Z,16.73
2022-10-18T09:58:41.505Z,21.80
2022-10-18T10:01:19.153Z,21.33
2022-10-18T10:03:50.452Z,14.63
2022-10-18T10:06:27.705Z,15.77
2022-10-18T10:09:01.980Z,15.23
2022-10-18T10:11:41.941Z,13.45
2022-10-18T10:16:48.311Z,13.32
2022-10-18T10:19:30.404Z,14.70
2022-10-18T10:24:39.971Z,13.68
2022-10-18T10:27:21.510Z,15.63
2022-10-18T10:30:04.141Z,16.95
2022-10-18T10:32:51.602Z,14.95
2022-10-18T10:38:31.541Z,13.00
2022-10-18T10:41:02.926Z,15.48
2022-10-18T10:43:38.626Z,12.90
2022-10-18T10:46:13.029Z,13.00
2022-10-18T10:48:50.887Z,13.88
2022-10-18T10:51:32.773Z,15.30
2022-10-18T10:54:11.336Z,18.70
2022-10-18T10:56:54.332Z,16.75
2022-10-18T10:59:26.470Z,14.52
2022-10-18T11:02:15.211Z,21.75
2022-10-18T11:04:47.411Z,11.73
2022-10-18T11:07:25.756Z,17.08
2022-10-18T11:10:01.723Z,14.50
2022-10-18T11:12:39.071Z,15.77
2022-10-18T11:15:34.576Z,14.60
2022-10-18T11:18:17.869Z,12.82
2022-10-18T11:20:50.302Z,13.45
2022-10-18T11:23:28.892Z,13.40
2022-10-18T11:26:07.714Z,15.98
2022-10-18T11:29:02.185Z,14.88
2022-10-18T11:31:39.304Z,14.98
2022-10-18T11:34:18.676Z,13.93
2022-10-18T11:37:22.860Z,16.02
2022-10-18T11:39:59.687Z,13.95
2022-10-18T11:42:39.807Z,18.33
2022-10-18T11:45:24.678Z,14.10
2022-10-18T11:48:00.228Z,14.15
2022-10-18T11:50:37.647Z,14.10
2022-10-18T11:53:15.011Z,16.52
2022-10-18T11:55:59.856Z,14.02
2022-10-18T11:58:51.184Z,26.52
2022-10-18T12:01:28.717Z,21.35
2022-10-18T12:04:07.269Z,23.90
2022-10-18T12:06:42.320Z,15.15
2022-10-18T12:09:21.966Z,16.90
2022-10-18T12:11:56.158Z,21.85
2022-10-18T12:14:32.347Z,14.50
2022-10-18T12:17:39.881Z,16.33
2022-10-18T12:20:00.014Z,13.10
2022-10-18T12:22:38.048Z,16.40
2022-10-18T12:25:11.619Z,22.63
2022-10-18T12:27:54.932Z,12.10
2022-10-18T12:30:32.452Z,12.90
2022-10-18T12:33:26.570Z,11.77
2022-10-18T12:36:04.720Z,12.88
2022-10-18T12:38:38.130Z,15.85
2022-10-18T12:41:08.555Z,11.20
2022-10-18T12:43:41.495Z,15.10
2022-10-18T12:46:13.827Z,12.65
2022-10-18T12:48:45.533Z,12.10
2022-10-18T12:51:17.078Z,14.07
2022-10-18T12:53:48.632Z,13.13
2022-10-18T12:56:42.417Z,15.77
2022-10-18T12:59:58.310Z,23.83
2022-10-18T13:02:34.220Z,14.70
2022-10-18T13:05:52.779Z,14.27
2022-10-18T13:08:41.277Z,15.25
2022-10-18T13:11:31.698Z,14.63
2022-10-18T13:14:32.466Z,15.20
2022-10-18T13:17:07.886Z,12.73
2022-10-18T13:20:02.873Z,45.58
2022-10-18T13:22:57.386Z,13.77
2022-10-18T13:25:30.795Z,16.35
2022-10-18T13:28:06.594Z,12.55
2022-10-18T13:30:50.471Z,14.95
2022-10-18T13:33:34.320Z,26.42
2022-10-18T13:36:06.850Z,11.10
2022-10-18T13:38:43.708Z,10.35
2022-10-18T13:41:17.146Z,10.15
2022-10-18T13:44:28.492Z,13.38
2022-10-18T13:47:34.092Z,11.95
2022-10-18T13:53:20.184Z,9.93
2022-10-18T13:56:07.352Z,13.05
2022-10-18T13:59:05.879Z,11.10
2022-10-18T14:01:52.953Z,12.93
2022-10-18T14:04:43.633Z,9.95
2022-10-18T14:07:13.731Z,10.38
2022-10-18T14:09:54.950Z,13.70
2022-10-18T14:12:33.977Z,13.07
2022-10-18T14:15:09.676Z,11.77
2022-10-18T14:17:42.991Z,13.93
2022-10-18T14:20:20.590Z,21.55
2022-10-18T14:22:54.904Z,21.73
2022-10-18T14:25:36.306Z,14.00
2022-10-18T14:28:10.058Z,26.00
2022-10-18T14:30:55.620Z,13.57
2022-10-18T14:33:36.657Z,19.38
2022-10-18T14:36:15.505Z,17.57
2022-10-18T14:38:53.456Z,17.20
2022-10-18T14:41:26.166Z,18.27
2022-10-18T14:44:18.574Z,18.23
2022-10-18T14:46:51.970Z,11.70
2022-10-18T14:49:25.849Z,11.93
2022-10-18T14:51:58.917Z,13.05
2022-10-18T14:54:35.109Z,10.43
2022-10-18T14:57:08.892Z,14.27
2022-10-18T14:59:44.829Z,9.93
2022-10-18T15:02:19.485Z,10.65
2022-10-18T15:04:59.115Z,13.57
2022-10-18T15:07:30.927Z,9.88
2022-10-18T15:10:02.680Z,13.60
2022-10-18T15:12:37.061Z,13.05
2022-10-18T15:15:21.181Z,14.55
2022-10-18T15:17:50.720Z,14.07
2022-10-18T15:20:25.527Z,16.00
2022-10-18T15:22:54.421Z,13.73
2022-10-18T15:25:30.802Z,17.20
2022-10-18T15:28:04.623Z,16.92
2022-10-18T15:30:41.403Z,15.07
2022-10-18T15:33:19.598Z,19.58
2022-10-18T15:35:51.863Z,14.40
2022-10-18T15:38:27.787Z,12.20
2022-10-18T15:40:56.824Z,12.63
2022-10-18T15:43:43.420Z,14.45
2022-10-18T15:46:31.948Z,17.27
2022-10-18T15:49:38.331Z,15.05
2022-10-18T15:52:37.451Z,15.52
2022-10-18T15:55:45.410Z,23.95
2022-10-18T15:58:20.762Z,22.02
2022-10-18T16:00:53.252Z,22.77
2022-10-18T16:03:27.141Z,18.48
2022-10-18T16:06:00.170Z,18.20
2022-10-18T16:08:30.533Z,15.85
2022-10-18T16:11:01.475Z,21.50
2022-10-18T16:13:29.993Z,19.30
2022-10-18T16:16:05.751Z,21.30
2022-10-18T16:18:35.301Z,20.27
2022-10-18T16:21:04.465Z,19.45
2022-10-18T16:23:34.652Z,23.85
2022-10-18T16:26:04.598Z,37.10
2022-10-18T16:28:33.284Z,36.30
2022-10-18T16:31:06.870Z,35.90
2022-10-18T16:33:36.903Z,32.40
2022-10-18T16:36:05.771Z,33.85
2022-10-18T16:38:37.879Z,40.47
2022-10-18T16:41:09.391Z,36.97
2022-10-18T16:43:39.851Z,49.15
2022-10-18T16:46:17.080Z,47.70
2022-10-18T16:48:46.585Z,46.03
2022-10-18T16:51:18.544Z,48.20
2022-10-18T16:53:53.426Z,44.50
2022-10-18T16:56:26.396Z,30.42
2022-10-18T16:58:55.575Z,30.35
2022-10-18T17:01:28.523Z,25.58
2022-10-18T17:03:57.476Z,35.55
2022-10-18T17:06:29.328Z,29.75
2022-10-18T17:11:28.535Z,39.97
2022-10-18T17:14:02.602Z,36.08
2022-10-18T17:16:33.590Z,25.38
2022-10-18T17:19:07.947Z,21.20
2022-10-18T17:21:37.134Z,18.05
2022-10-18T17:24:06.291Z,27.02
2022-10-18T17:26:35.249Z,26.17
2022-10-18T17:29:06.397Z,26.08
2022-10-18T17:31:39.941Z,36.40
2022-10-18T17:34:10.755Z,33.25
2022-10-18T17:36:40.619Z,33.05
2022-10-18T17:39:09.596Z,31.42
2022-10-18T17:41:41.095Z,25.75
2022-10-18T17:44:09.849Z,29.13
2022-10-18T17:46:45.872Z,31.73
2022-10-18T17:49:17.105Z,32.70
2022-10-18T17:51:49.036Z,32.35
2022-10-18T17:54:18.692Z,29.10
2022-10-18T17:56:52.338Z,35.40
2022-10-18T17:59:24.905Z,35.58
2022-10-18T18:01:55.143Z,35.72
2022-10-18T18:04:27.715Z,38.80
2022-10-18T18:07:04.695Z,65.28
2022-10-18T18:09:33.196Z,56.17
2022-10-18T18:12:04.432Z,58.90
2022-10-18T18:14:34.346Z,53.08
2022-10-18T18:17:05.601Z,56.67
2022-10-18T18:22:05.717Z,65.07
2022-10-18T18:24:38.138Z,59.30
2022-10-18T18:27:06.542Z,50.78
2022-10-18T18:29:35.593Z,53.47
2022-10-18T18:32:05.307Z,53.42
2022-10-18T18:34:41.884Z,54.97
2022-10-18T18:37:15.575Z,58.20
2022-10-18T18:39:45.878Z,52.90
2022-10-18T18:42:17.836Z,55.35
2022-10-18T18:47:27.429Z,57.70
2022-10-18T18:50:03.976Z,63.20
2022-10-18T18:52:39.063Z,56.67
2022-10-18T18:55:10.941Z,52.75
2022-10-18T19:00:16.096Z,62.97
2022-10-18T19:02:50.027Z,49.55
2022-10-18T19:05:25.643Z,54.25
2022-10-18T19:07:54.504Z,58.58
2022-10-18T19:10:23.438Z,51.90
2022-10-18T19:12:51.583Z,56.65
2022-10-18T19:15:21.812Z,51.40
2022-10-18T19:17:52.105Z,51.03
2022-10-18T19:20:20.926Z,49.92
2022-10-18T19:22:49.773Z,54.90
2022-10-18T19:25:23.371Z,53.28
2022-10-18T19:27:54.924Z,58.50
2022-10-18T19:30:25.827Z,47.83
2022-10-18T19:33:04.315Z,52.85
2022-10-18T19:35:32.497Z,57.33
2022-10-18T19:38:03.667Z,52.38
2022-10-18T19:40:32.359Z,51.63
2022-10-18T19:43:03.428Z,53.97
2022-10-18T19:45:32.392Z,51.03
2022-10-18T19:48:04.552Z,66.88
2022-10-18T19:50:39.771Z,50.78
2022-10-18T19:53:11.474Z,46.95
2022-10-18T19:55:43.435Z,46.72
2022-10-18T19:58:11.963Z,54.28
2022-10-18T20:00:46.833Z,50.15
2022-10-18T20:03:17.565Z,50.88
2022-10-18T20:05:45.619Z,57.05
2022-10-18T20:08:13.862Z,51.70
2022-10-18T20:10:45.738Z,48.03
2022-10-18T20:13:14.900Z,51.07
2022-10-18T20:15:43.563Z,48.38
2022-10-18T20:18:11.831Z,51.83
2022-10-18T20:20:48.279Z,53.33
2022-10-18T20:23:22.752Z,55.40
2022-10-18T20:26:00.213Z,49.78
2022-10-18T20:28:29.648Z,49.85
2022-10-18T20:31:03.058Z,50.03
2022-10-18T20:33:32.727Z,55.67
2022-10-18T20:36:07.335Z,55.20
2022-10-18T20:38:40.943Z,54.10
2022-10-18T20:41:12.172Z,49.17
2022-10-18T20:43:42.087Z,52.97
2022-10-18T20:46:11.539Z,56.33
2022-10-18T20:48:43.280Z,58.67
2022-10-18T20:51:14.131Z,65.38
2022-10-18T20:53:42.938Z,59.47
2022-10-18T20:56:13.628Z,55.30
2022-10-18T20:58:43.419Z,58.50
2022-10-18T21:01:14.795Z,54.50
2022-10-18T21:03:45.546Z,60.42
2022-10-18T21:06:18.415Z,58.60
2022-10-18T21:08:55.800Z,54.97
2022-10-18T21:11:28.137Z,57.50
2022-10-18T21:14:00.210Z,55.92
2022-10-18T21:16:28.716Z,59.03
2022-10-18T21:19:02.157Z,52.00
2022-10-18T21:21:35.625Z,60.72
2022-10-18T21:24:07.140Z,56.38
2022-10-18T21:26:36.896Z,54.72
2022-10-18T21:29:09.259Z,56.90
2022-10-18T21:31:41.189Z,54.40
2022-10-18T21:34:20.324Z,58.35
2022-10-18T21:36:52.225Z,59.85
2022-10-18T21:39:25.829Z,53.38
2022-10-18T21:41:56.526Z,58.13
2022-10-18T21:44:26.557Z,56.08
2022-10-18T21:46:57.124Z,58.28
2022-10-18T21:49:28.070Z,63.05
2022-10-18T21:51:58.408Z,57.03
2022-10-18T21:54:28.115Z,57.47
2022-10-18T21:56:56.276Z,54.28
2022-10-18T21:59:25.643Z,56.40
2022-10-18T22:01:53.941Z,59.15
2022-10-18T22:04:24.993Z,60.97
2022-10-18T22:06:53.297Z,57.73
2022-10-18T22:09:25.618Z,54.72
2022-10-18T22:12:00.156Z,54.65
2022-10-18T22:14:28.436Z,53.58
2022-10-18T22:17:00.123Z,51.25
2022-10-18T22:19:28.792Z,50.03
2022-10-18T22:21:58.751Z,51.63
2022-10-18T22:24:29.103Z,56.40
2022-10-18T22:26:57.602Z,54.83
2022-10-18T22:29:29.927Z,49.70
2022-10-18T22:31:59.408Z,49.47
2022-10-18T22:34:32.640Z,50.03
2022-10-18T22:37:01.219Z,52.40
2022-10-18T22:39:35.331Z,45.50
2022-10-18T22:42:08.295Z,51.28
2022-10-18T22:44:40.037Z,48.65
2022-10-18T22:47:09.372Z,47.70
2022-10-18T22:49:40.240Z,50.22
2022-10-18T22:52:10.317Z,46.63
2022-10-18T22:54:47.731Z,48.55
2022-10-18T22:57:15.863Z,51.10
2022-10-18T22:59:49.690Z,46.58
2022-10-18T23:02:18.122Z,47.38
2022-10-18T23:04:46.368Z,47.65
2022-10-18T23:07:16.303Z,46.13
2022-10-18T23:09:49.717Z,46.78
2022-10-18T23:12:18.209Z,45.05
2022-10-18T23:14:46.391Z,44.13
2022-10-18T23:17:14.999Z,47.47
2022-10-18T23:19:43.432Z,47.17
2022-10-18T23:22:11.874Z,43.33
2022-10-18T23:24:40.651Z,44.40
2022-10-18T23:27:10.065Z,46.97
2022-10-18T23:29:42.315Z,43.35
2022-10-18T23:32:10.604Z,42.63
2022-10-18T23:34:38.675Z,46.13
2022-10-18T23:37:07.314Z,42.33
2022-10-18T23:39:38.141Z,40.63
2022-10-18T23:42:06.925Z,43.88
2022-10-18T23:44:36.663Z,41.03
2022-10-18T23:47:05.156Z,41.25
2022-10-18T23:49:36.074Z,40.85
2022-10-18T23:52:04.932Z,40.30
2022-10-18T23:54:35.060Z,37.35
2022-10-18T23:57:03.553Z,42.08
2022-10-18T23:59:37.421Z,44.35
